<?xml version="1.0" encoding="UTF-8" standalone="no" ?>
<gpx xmlns="http://www.topografix.com/GPX/1/1" xmlns:xsi="http://www.w3.org/2001/XMLSchema-instance" xsi:schemaLocation="http://www.topografix.com/GPX/1/1 http://www.topografix.com/GPX/1/1/gpx.xsd" version="1.1" creator="VisuGPX - https://www.visugpx.com">
  <metadata>
    <name>Col de Menté - Pic de l'Escalette jusu'au Pas de l'Âne</name>
    <desc><![CDATA[Pic de l'Escalette au départ du Col de Menté.
Ascension vers le Pic de l'Escalette par le chemin des crêtes et retour depuis le col du Pas de l'Âne par le versant est.]]></desc>
  </metadata>
  <trk>
    <name><![CDATA[Pic de l'Escalette (Col de Menté)]]></name>
    <trkseg>
      <trkpt lat="42.91901" lon="0.76198">
        <ele>1359.8</ele>
        <time>2019-12-30T08:39:49.132Z</time>
      </trkpt>
      <trkpt lat="42.91903" lon="0.76191">
        <ele>1359.3</ele>
        <time>2019-12-30T08:40:17.964Z</time>
      </trkpt>
      <trkpt lat="42.91903" lon="0.76181">
        <ele>1358.3</ele>
        <time>2019-12-30T08:40:57.871Z</time>
      </trkpt>
      <trkpt lat="42.91912" lon="0.76177">
        <ele>1362.1</ele>
        <time>2019-12-30T08:41:44.997Z</time>
      </trkpt>
      <trkpt lat="42.91918" lon="0.76172">
        <ele>1361.8</ele>
        <time>2019-12-30T08:41:52.997Z</time>
      </trkpt>
      <trkpt lat="42.91922" lon="0.76167">
        <ele>1361.8</ele>
        <time>2019-12-30T08:41:59.997Z</time>
      </trkpt>
      <trkpt lat="42.91924" lon="0.76167">
        <ele>1361.8</ele>
        <time>2019-12-30T08:42:01.997Z</time>
      </trkpt>
      <trkpt lat="42.91929" lon="0.76163">
        <ele>1362.4</ele>
        <time>2019-12-30T08:42:08.997Z</time>
      </trkpt>
      <trkpt lat="42.91935" lon="0.76157">
        <ele>1362.4</ele>
        <time>2019-12-30T08:42:15.997Z</time>
      </trkpt>
      <trkpt lat="42.91939" lon="0.76154">
        <ele>1362.4</ele>
        <time>2019-12-30T08:42:21.997Z</time>
      </trkpt>
      <trkpt lat="42.91941" lon="0.76145">
        <ele>1362.7</ele>
        <time>2019-12-30T08:42:28.997Z</time>
      </trkpt>
      <trkpt lat="42.91941" lon="0.76134">
        <ele>1363.2</ele>
        <time>2019-12-30T08:42:36.997Z</time>
      </trkpt>
      <trkpt lat="42.91944" lon="0.7612">
        <ele>1364</ele>
        <time>2019-12-30T08:42:45.997Z</time>
      </trkpt>
      <trkpt lat="42.91946" lon="0.7611">
        <ele>1364.5</ele>
        <time>2019-12-30T08:42:51.997Z</time>
      </trkpt>
      <trkpt lat="42.9195" lon="0.76097">
        <ele>1365.2</ele>
        <time>2019-12-30T08:43:00.997Z</time>
      </trkpt>
      <trkpt lat="42.91953" lon="0.76087">
        <ele>1365.9</ele>
        <time>2019-12-30T08:43:08.997Z</time>
      </trkpt>
      <trkpt lat="42.91955" lon="0.76077">
        <ele>1366.5</ele>
        <time>2019-12-30T08:43:16.997Z</time>
      </trkpt>
      <trkpt lat="42.91957" lon="0.76067">
        <ele>1367.2</ele>
        <time>2019-12-30T08:43:25.997Z</time>
      </trkpt>
      <trkpt lat="42.91959" lon="0.76051">
        <ele>1365</ele>
        <time>2019-12-30T08:43:42.014Z</time>
      </trkpt>
      <trkpt lat="42.91962" lon="0.76045">
        <ele>1366</ele>
        <time>2019-12-30T08:43:48.705Z</time>
      </trkpt>
      <trkpt lat="42.91963" lon="0.76043">
        <ele>1366</ele>
        <time>2019-12-30T08:43:51.042Z</time>
      </trkpt>
      <trkpt lat="42.91969" lon="0.76045">
        <ele>1368</ele>
        <time>2019-12-30T08:43:59.164Z</time>
      </trkpt>
      <trkpt lat="42.91985" lon="0.76069">
        <ele>1372.5</ele>
        <time>2019-12-30T08:44:32.000Z</time>
      </trkpt>
      <trkpt lat="42.91988" lon="0.76075">
        <ele>1373.3</ele>
        <time>2019-12-30T08:44:38.873Z</time>
      </trkpt>
      <trkpt lat="42.91996" lon="0.76081">
        <ele>1375</ele>
        <time>2019-12-30T08:44:51.739Z</time>
      </trkpt>
      <trkpt lat="42.91999" lon="0.76079">
        <ele>1379.3</ele>
        <time>2019-12-30T08:44:56.126Z</time>
      </trkpt>
      <trkpt lat="42.92004" lon="0.76074">
        <ele>1377.9</ele>
        <time>2019-12-30T08:45:05.028Z</time>
      </trkpt>
      <trkpt lat="42.92009" lon="0.76068">
        <ele>1379.3</ele>
        <time>2019-12-30T08:45:13.028Z</time>
      </trkpt>
      <trkpt lat="42.92013" lon="0.76063">
        <ele>1381.1</ele>
        <time>2019-12-30T08:45:24.028Z</time>
      </trkpt>
      <trkpt lat="42.92018" lon="0.76057">
        <ele>1383.5</ele>
        <time>2019-12-30T08:45:33.028Z</time>
      </trkpt>
      <trkpt lat="42.92022" lon="0.76047">
        <ele>1385.3</ele>
        <time>2019-12-30T08:45:45.028Z</time>
      </trkpt>
      <trkpt lat="42.92029" lon="0.7604">
        <ele>1389.6</ele>
        <time>2019-12-30T08:45:57.028Z</time>
      </trkpt>
      <trkpt lat="42.92034" lon="0.76036">
        <ele>1391.2</ele>
        <time>2019-12-30T08:46:09.028Z</time>
      </trkpt>
      <trkpt lat="42.92038" lon="0.7603">
        <ele>1392.8</ele>
        <time>2019-12-30T08:46:17.028Z</time>
      </trkpt>
      <trkpt lat="42.92046" lon="0.76028">
        <ele>1396.6</ele>
        <time>2019-12-30T08:46:24.028Z</time>
      </trkpt>
      <trkpt lat="42.9205" lon="0.76027">
        <ele>1397.7</ele>
        <time>2019-12-30T08:46:34.028Z</time>
      </trkpt>
      <trkpt lat="42.92055" lon="0.76027">
        <ele>1399.9</ele>
        <time>2019-12-30T08:46:42.028Z</time>
      </trkpt>
      <trkpt lat="42.9206" lon="0.76024">
        <ele>1401.4</ele>
        <time>2019-12-30T08:46:52.028Z</time>
      </trkpt>
      <trkpt lat="42.92064" lon="0.76021">
        <ele>1403.4</ele>
        <time>2019-12-30T08:47:00.028Z</time>
      </trkpt>
      <trkpt lat="42.92067" lon="0.76021">
        <ele>1399.8</ele>
        <time>2019-12-30T08:47:06.120Z</time>
      </trkpt>
      <trkpt lat="42.92059" lon="0.76025">
        <ele>1396.8</ele>
        <time>2019-12-30T08:47:24.010Z</time>
      </trkpt>
      <trkpt lat="42.92067" lon="0.75979">
        <ele>1404.8</ele>
        <time>2019-12-30T08:48:33.385Z</time>
      </trkpt>
      <trkpt lat="42.92079" lon="0.75951">
        <ele>1413.3</ele>
        <time>2019-12-30T08:49:19.839Z</time>
      </trkpt>
      <trkpt lat="42.92099" lon="0.7593">
        <ele>1422</ele>
        <time>2019-12-30T08:50:09.650Z</time>
      </trkpt>
      <trkpt lat="42.92122" lon="0.75897">
        <ele>1433.3</ele>
        <time>2019-12-30T08:51:15.502Z</time>
      </trkpt>
      <trkpt lat="42.9213" lon="0.75885">
        <ele>1440.3</ele>
        <time>2019-12-30T08:51:37.380Z</time>
      </trkpt>
      <trkpt lat="42.92135" lon="0.75877">
        <ele>1440.3</ele>
        <time>2019-12-30T08:51:54.153Z</time>
      </trkpt>
      <trkpt lat="42.92133" lon="0.75864">
        <ele>1442</ele>
        <time>2019-12-30T08:52:16.233Z</time>
      </trkpt>
      <trkpt lat="42.92132" lon="0.75855">
        <ele>1443.5</ele>
        <time>2019-12-30T08:52:31.303Z</time>
      </trkpt>
      <trkpt lat="42.92142" lon="0.75846">
        <ele>1447.5</ele>
        <time>2019-12-30T08:52:57.583Z</time>
      </trkpt>
      <trkpt lat="42.92141" lon="0.75841">
        <ele>1450.8</ele>
        <time>2019-12-30T08:53:06.508Z</time>
      </trkpt>
      <trkpt lat="42.9214" lon="0.75825">
        <ele>1450.8</ele>
        <time>2019-12-30T08:53:34.789Z</time>
      </trkpt>
      <trkpt lat="42.92134" lon="0.75816">
        <ele>1449.8</ele>
        <time>2019-12-30T08:53:56.245Z</time>
      </trkpt>
      <trkpt lat="42.92132" lon="0.75775">
        <ele>1454</ele>
        <time>2019-12-30T08:55:05.988Z</time>
      </trkpt>
      <trkpt lat="42.92147" lon="0.75747">
        <ele>1464.3</ele>
        <time>2019-12-30T08:56:04.933Z</time>
      </trkpt>
      <trkpt lat="42.92146" lon="0.75733">
        <ele>1465</ele>
        <time>2019-12-30T08:56:29.591Z</time>
      </trkpt>
      <trkpt lat="42.92136" lon="0.75716">
        <ele>1462</ele>
        <time>2019-12-30T08:57:05.975Z</time>
      </trkpt>
      <trkpt lat="42.92141" lon="0.75701">
        <ele>1466.3</ele>
        <time>2019-12-30T08:57:35.324Z</time>
      </trkpt>
      <trkpt lat="42.92138" lon="0.75689">
        <ele>1465.3</ele>
        <time>2019-12-30T08:57:57.111Z</time>
      </trkpt>
      <trkpt lat="42.92148" lon="0.75677">
        <ele>1472</ele>
        <time>2019-12-30T08:58:28.830Z</time>
      </trkpt>
      <trkpt lat="42.92147" lon="0.75653">
        <ele>1474</ele>
        <time>2019-12-30T08:59:09.309Z</time>
      </trkpt>
      <trkpt lat="42.92151" lon="0.75627">
        <ele>1478.8</ele>
        <time>2019-12-30T08:59:54.373Z</time>
      </trkpt>
      <trkpt lat="42.92161" lon="0.75606">
        <ele>1486.3</ele>
        <time>2019-12-30T09:00:37.065Z</time>
      </trkpt>
      <trkpt lat="42.92163" lon="0.75614">
        <ele>1486.8</ele>
        <time>2019-12-30T09:00:53.429Z</time>
      </trkpt>
      <trkpt lat="42.9217" lon="0.75635">
        <ele>1489.3</ele>
        <time>2019-12-30T09:01:37.032Z</time>
      </trkpt>
      <trkpt lat="42.92173" lon="0.75642">
        <ele>1489.3</ele>
        <time>2019-12-30T09:01:52.767Z</time>
      </trkpt>
      <trkpt lat="42.92201" lon="0.75664">
        <ele>1500.5</ele>
        <time>2019-12-30T09:03:16.647Z</time>
      </trkpt>
      <trkpt lat="42.92251" lon="0.7568">
        <ele>1522.5</ele>
        <time>2019-12-30T09:05:31.364Z</time>
      </trkpt>
      <trkpt lat="42.92264" lon="0.75686">
        <ele>1530</ele>
        <time>2019-12-30T09:06:05.975Z</time>
      </trkpt>
      <trkpt lat="42.92268" lon="0.7569">
        <ele>1530.1</ele>
        <time>2019-12-30T09:06:19.574Z</time>
      </trkpt>
      <trkpt lat="42.92274" lon="0.7569">
        <ele>1531.5</ele>
        <time>2019-12-30T09:06:32.574Z</time>
      </trkpt>
      <trkpt lat="42.92278" lon="0.75689">
        <ele>1533.7</ele>
        <time>2019-12-30T09:06:41.574Z</time>
      </trkpt>
      <trkpt lat="42.9228" lon="0.75684">
        <ele>1534.1</ele>
        <time>2019-12-30T09:06:50.574Z</time>
      </trkpt>
      <trkpt lat="42.92281" lon="0.75681">
        <ele>1535.4</ele>
        <time>2019-12-30T09:06:58.574Z</time>
      </trkpt>
      <trkpt lat="42.92282" lon="0.75676">
        <ele>1535.8</ele>
        <time>2019-12-30T09:07:07.574Z</time>
      </trkpt>
      <trkpt lat="42.92283" lon="0.75669">
        <ele>1536.3</ele>
        <time>2019-12-30T09:07:15.574Z</time>
      </trkpt>
      <trkpt lat="42.92284" lon="0.75665">
        <ele>1537.6</ele>
        <time>2019-12-30T09:07:21.574Z</time>
      </trkpt>
      <trkpt lat="42.92285" lon="0.75663">
        <ele>1538</ele>
        <time>2019-12-30T09:07:28.574Z</time>
      </trkpt>
      <trkpt lat="42.92286" lon="0.75661">
        <ele>1538.4</ele>
        <time>2019-12-30T09:07:37.574Z</time>
      </trkpt>
      <trkpt lat="42.92286" lon="0.75653">
        <ele>1539.6</ele>
        <time>2019-12-30T09:07:46.574Z</time>
      </trkpt>
      <trkpt lat="42.92289" lon="0.75646">
        <ele>1540.8</ele>
        <time>2019-12-30T09:07:55.574Z</time>
      </trkpt>
      <trkpt lat="42.92289" lon="0.75638">
        <ele>1542.1</ele>
        <time>2019-12-30T09:08:03.574Z</time>
      </trkpt>
      <trkpt lat="42.92291" lon="0.75632">
        <ele>1543.1</ele>
        <time>2019-12-30T09:08:10.574Z</time>
      </trkpt>
      <trkpt lat="42.92291" lon="0.75629">
        <ele>1543.5</ele>
        <time>2019-12-30T09:08:18.574Z</time>
      </trkpt>
      <trkpt lat="42.9229" lon="0.75627">
        <ele>1543.8</ele>
        <time>2019-12-30T09:08:37.574Z</time>
      </trkpt>
      <trkpt lat="42.92291" lon="0.75625">
        <ele>1544.2</ele>
        <time>2019-12-30T09:08:49.574Z</time>
      </trkpt>
      <trkpt lat="42.92291" lon="0.75616">
        <ele>1545.3</ele>
        <time>2019-12-30T09:08:57.574Z</time>
      </trkpt>
      <trkpt lat="42.92292" lon="0.75608">
        <ele>1544.5</ele>
        <time>2019-12-30T09:09:05.070Z</time>
      </trkpt>
      <trkpt lat="42.92292" lon="0.75605">
        <ele>1545.3</ele>
        <time>2019-12-30T09:09:07.729Z</time>
      </trkpt>
      <trkpt lat="42.92292" lon="0.75587">
        <ele>1547.5</ele>
        <time>2019-12-30T09:09:23.680Z</time>
      </trkpt>
      <trkpt lat="42.9228" lon="0.75573">
        <ele>1545.8</ele>
        <time>2019-12-30T09:09:43.010Z</time>
      </trkpt>
      <trkpt lat="42.92273" lon="0.75537">
        <ele>1549.3</ele>
        <time>2019-12-30T09:10:16.777Z</time>
      </trkpt>
      <trkpt lat="42.92258" lon="0.75515">
        <ele>1546.8</ele>
        <time>2019-12-30T09:10:43.494Z</time>
      </trkpt>
      <trkpt lat="42.92252" lon="0.75474">
        <ele>1551.5</ele>
        <time>2019-12-30T09:11:21.038Z</time>
      </trkpt>
      <trkpt lat="42.92245" lon="0.75455">
        <ele>1550.3</ele>
        <time>2019-12-30T09:11:41.004Z</time>
      </trkpt>
      <trkpt lat="42.9224" lon="0.75444">
        <ele>1550.3</ele>
        <time>2019-12-30T09:11:52.379Z</time>
      </trkpt>
      <trkpt lat="42.92245" lon="0.75402">
        <ele>1560.3</ele>
        <time>2019-12-30T09:12:30.173Z</time>
      </trkpt>
      <trkpt lat="42.92239" lon="0.75342">
        <ele>1567</ele>
        <time>2019-12-30T09:13:24.804Z</time>
      </trkpt>
      <trkpt lat="42.92238" lon="0.75334">
        <ele>1567.5</ele>
        <time>2019-12-30T09:13:36.499Z</time>
      </trkpt>
      <trkpt lat="42.92237" lon="0.75319">
        <ele>1568.5</ele>
        <time>2019-12-30T09:13:57.133Z</time>
      </trkpt>
      <trkpt lat="42.92237" lon="0.75285">
        <ele>1572</ele>
        <time>2019-12-30T09:14:45.107Z</time>
      </trkpt>
      <trkpt lat="42.92242" lon="0.75259">
        <ele>1576.8</ele>
        <time>2019-12-30T09:15:22.684Z</time>
      </trkpt>
      <trkpt lat="42.92243" lon="0.75242">
        <ele>1578.3</ele>
        <time>2019-12-30T09:15:45.335Z</time>
      </trkpt>
      <trkpt lat="42.92243" lon="0.75241">
        <ele>1578.3</ele>
        <time>2019-12-30T09:15:47.009Z</time>
      </trkpt>
      <trkpt lat="42.92232" lon="0.75196">
        <ele>1576</ele>
        <time>2019-12-30T09:16:52.979Z</time>
      </trkpt>
      <trkpt lat="42.92239" lon="0.75115">
        <ele>1581</ele>
        <time>2019-12-30T09:18:45.982Z</time>
      </trkpt>
      <trkpt lat="42.92239" lon="0.75105">
        <ele>1581.3</ele>
        <time>2019-12-30T09:18:59.720Z</time>
      </trkpt>
      <trkpt lat="42.92238" lon="0.75103">
        <ele>1580.8</ele>
        <time>2019-12-30T09:19:02.645Z</time>
      </trkpt>
      <trkpt lat="42.92239" lon="0.75105">
        <ele>1581.3</ele>
        <time>2019-12-30T09:19:05.570Z</time>
      </trkpt>
      <trkpt lat="42.92239" lon="0.75115">
        <ele>1581</ele>
        <time>2019-12-30T09:19:15.744Z</time>
      </trkpt>
      <trkpt lat="42.92251" lon="0.75116">
        <ele>1585.5</ele>
        <time>2019-12-30T09:19:33.287Z</time>
      </trkpt>
      <trkpt lat="42.92252" lon="0.7508">
        <ele>1586.3</ele>
        <time>2019-12-30T09:20:09.857Z</time>
      </trkpt>
      <trkpt lat="42.92295" lon="0.75053">
        <ele>1596.3</ele>
        <time>2019-12-30T09:21:16.227Z</time>
      </trkpt>
      <trkpt lat="42.92339" lon="0.75017">
        <ele>1603.3</ele>
        <time>2019-12-30T09:22:28.187Z</time>
      </trkpt>
      <trkpt lat="42.92388" lon="0.74984">
        <ele>1613.5</ele>
        <time>2019-12-30T09:23:45.110Z</time>
      </trkpt>
      <trkpt lat="42.92405" lon="0.74979">
        <ele>1617.3</ele>
        <time>2019-12-30T09:24:09.426Z</time>
      </trkpt>
      <trkpt lat="42.92408" lon="0.7498">
        <ele>1618.5</ele>
        <time>2019-12-30T09:24:18.580Z</time>
      </trkpt>
      <trkpt lat="42.92421" lon="0.74984">
        <ele>1624</ele>
        <time>2019-12-30T09:24:53.414Z</time>
      </trkpt>
      <trkpt lat="42.92452" lon="0.74988">
        <ele>1635</ele>
        <time>2019-12-30T09:26:15.445Z</time>
      </trkpt>
      <trkpt lat="42.9248" lon="0.74986">
        <ele>1642.8</ele>
        <time>2019-12-30T09:27:27.033Z</time>
      </trkpt>
      <trkpt lat="42.92497" lon="0.74989">
        <ele>1659.8</ele>
        <time>2019-12-30T09:28:11.610Z</time>
      </trkpt>
      <trkpt lat="42.92529" lon="0.74994">
        <ele>1659.8</ele>
        <time>2019-12-30T09:29:37.904Z</time>
      </trkpt>
      <trkpt lat="42.92535" lon="0.74997">
        <ele>1662.3</ele>
        <time>2019-12-30T09:29:52.792Z</time>
      </trkpt>
      <trkpt lat="42.92583" lon="0.75023">
        <ele>1687</ele>
        <time>2019-12-30T09:32:07.865Z</time>
      </trkpt>
      <trkpt lat="42.92642" lon="0.75037">
        <ele>1714.8</ele>
        <time>2019-12-30T09:34:45.111Z</time>
      </trkpt>
      <trkpt lat="42.92672" lon="0.75041">
        <ele>1727</ele>
        <time>2019-12-30T09:36:06.185Z</time>
      </trkpt>
      <trkpt lat="42.92686" lon="0.75043">
        <ele>1732.5</ele>
        <time>2019-12-30T09:36:40.660Z</time>
      </trkpt>
      <trkpt lat="42.92715" lon="0.75049">
        <ele>1745</ele>
        <time>2019-12-30T09:38:05.514Z</time>
      </trkpt>
      <trkpt lat="42.9272" lon="0.7505">
        <ele>1747</ele>
        <time>2019-12-30T09:38:19.051Z</time>
      </trkpt>
      <trkpt lat="42.92741" lon="0.75048">
        <ele>1753.5</ele>
        <time>2019-12-30T09:39:18.911Z</time>
      </trkpt>
      <trkpt lat="42.92759" lon="0.75039">
        <ele>1757</ele>
        <time>2019-12-30T09:40:13.661Z</time>
      </trkpt>
      <trkpt lat="42.92779" lon="0.75034">
        <ele>1763.8</ele>
        <time>2019-12-30T09:41:11.248Z</time>
      </trkpt>
      <trkpt lat="42.92783" lon="0.75036">
        <ele>1766</ele>
        <time>2019-12-30T09:41:23.840Z</time>
      </trkpt>
      <trkpt lat="42.92787" lon="0.75036">
        <ele>1768.8</ele>
        <time>2019-12-30T09:41:34.421Z</time>
      </trkpt>
      <trkpt lat="42.9279" lon="0.75035">
        <ele>1768.8</ele>
        <time>2019-12-30T09:41:44.133Z</time>
      </trkpt>
      <trkpt lat="42.92811" lon="0.75027">
        <ele>1775.5</ele>
        <time>2019-12-30T09:42:46.786Z</time>
      </trkpt>
      <trkpt lat="42.92831" lon="0.75025">
        <ele>1783.5</ele>
        <time>2019-12-30T09:43:43.681Z</time>
      </trkpt>
      <trkpt lat="42.92835" lon="0.75029">
        <ele>1786</ele>
        <time>2019-12-30T09:43:58.496Z</time>
      </trkpt>
      <trkpt lat="42.92835" lon="0.75031">
        <ele>1766.9</ele>
        <time>2019-12-30T09:44:02.703Z</time>
      </trkpt>
      <trkpt lat="42.92837" lon="0.75033">
        <ele>1767.7</ele>
        <time>2019-12-30T09:44:09.703Z</time>
      </trkpt>
      <trkpt lat="42.92839" lon="0.75035">
        <ele>1768.3</ele>
        <time>2019-12-30T09:44:15.703Z</time>
      </trkpt>
      <trkpt lat="42.92841" lon="0.75039">
        <ele>1769.2</ele>
        <time>2019-12-30T09:44:23.703Z</time>
      </trkpt>
      <trkpt lat="42.92843" lon="0.75041">
        <ele>1770</ele>
        <time>2019-12-30T09:44:30.703Z</time>
      </trkpt>
      <trkpt lat="42.92845" lon="0.75044">
        <ele>1770.8</ele>
        <time>2019-12-30T09:44:37.703Z</time>
      </trkpt>
      <trkpt lat="42.92845" lon="0.75045">
        <ele>1771.2</ele>
        <time>2019-12-30T09:44:46.703Z</time>
      </trkpt>
      <trkpt lat="42.92846" lon="0.75049">
        <ele>1772</ele>
        <time>2019-12-30T09:44:52.703Z</time>
      </trkpt>
      <trkpt lat="42.92847" lon="0.75052">
        <ele>1772.9</ele>
        <time>2019-12-30T09:44:58.703Z</time>
      </trkpt>
      <trkpt lat="42.92848" lon="0.75055">
        <ele>1773.7</ele>
        <time>2019-12-30T09:45:04.703Z</time>
      </trkpt>
      <trkpt lat="42.9285" lon="0.75058">
        <ele>1774.7</ele>
        <time>2019-12-30T09:45:11.703Z</time>
      </trkpt>
      <trkpt lat="42.92851" lon="0.7506">
        <ele>1775.4</ele>
        <time>2019-12-30T09:45:17.703Z</time>
      </trkpt>
      <trkpt lat="42.92853" lon="0.75062">
        <ele>1776.3</ele>
        <time>2019-12-30T09:45:23.703Z</time>
      </trkpt>
      <trkpt lat="42.92853" lon="0.75063">
        <ele>1776.7</ele>
        <time>2019-12-30T09:45:31.703Z</time>
      </trkpt>
      <trkpt lat="42.92854" lon="0.75063">
        <ele>1776.8</ele>
        <time>2019-12-30T09:45:46.703Z</time>
      </trkpt>
      <trkpt lat="42.92855" lon="0.75067">
        <ele>1778.2</ele>
        <time>2019-12-30T09:45:54.703Z</time>
      </trkpt>
      <trkpt lat="42.92857" lon="0.7507">
        <ele>1779.2</ele>
        <time>2019-12-30T09:46:02.703Z</time>
      </trkpt>
      <trkpt lat="42.92861" lon="0.75074">
        <ele>1781</ele>
        <time>2019-12-30T09:46:11.703Z</time>
      </trkpt>
      <trkpt lat="42.92863" lon="0.75077">
        <ele>1782.2</ele>
        <time>2019-12-30T09:46:17.703Z</time>
      </trkpt>
      <trkpt lat="42.92865" lon="0.75081">
        <ele>1783.7</ele>
        <time>2019-12-30T09:46:24.703Z</time>
      </trkpt>
      <trkpt lat="42.92866" lon="0.75085">
        <ele>1784.6</ele>
        <time>2019-12-30T09:46:30.703Z</time>
      </trkpt>
      <trkpt lat="42.92869" lon="0.7509">
        <ele>1786.3</ele>
        <time>2019-12-30T09:46:39.703Z</time>
      </trkpt>
      <trkpt lat="42.9287" lon="0.75093">
        <ele>1787.2</ele>
        <time>2019-12-30T09:46:48.703Z</time>
      </trkpt>
      <trkpt lat="42.92873" lon="0.75096">
        <ele>1788.3</ele>
        <time>2019-12-30T09:46:55.703Z</time>
      </trkpt>
      <trkpt lat="42.92875" lon="0.75101">
        <ele>1789.6</ele>
        <time>2019-12-30T09:47:02.703Z</time>
      </trkpt>
      <trkpt lat="42.92878" lon="0.75106">
        <ele>1791</ele>
        <time>2019-12-30T09:47:09.703Z</time>
      </trkpt>
      <trkpt lat="42.92878" lon="0.75108">
        <ele>1791.4</ele>
        <time>2019-12-30T09:47:18.703Z</time>
      </trkpt>
      <trkpt lat="42.92878" lon="0.75107">
        <ele>1791.5</ele>
        <time>2019-12-30T09:47:36.703Z</time>
      </trkpt>
      <trkpt lat="42.92878" lon="0.75107">
        <ele>1791.7</ele>
        <time>2019-12-30T09:47:45.703Z</time>
      </trkpt>
      <trkpt lat="42.92879" lon="0.75109">
        <ele>1792.3</ele>
        <time>2019-12-30T09:47:53.703Z</time>
      </trkpt>
      <trkpt lat="42.92879" lon="0.7511">
        <ele>1792.5</ele>
        <time>2019-12-30T09:48:11.703Z</time>
      </trkpt>
      <trkpt lat="42.92877" lon="0.7511">
        <ele>1792.9</ele>
        <time>2019-12-30T09:48:19.703Z</time>
      </trkpt>
      <trkpt lat="42.92877" lon="0.7511">
        <ele>1793</ele>
        <time>2019-12-30T09:48:31.703Z</time>
      </trkpt>
      <trkpt lat="42.92877" lon="0.7511">
        <ele>1793</ele>
        <time>2019-12-30T09:48:41.703Z</time>
      </trkpt>
      <trkpt lat="42.92879" lon="0.7511">
        <ele>1793.3</ele>
        <time>2019-12-30T09:48:49.703Z</time>
      </trkpt>
      <trkpt lat="42.92878" lon="0.75111">
        <ele>1793.5</ele>
        <time>2019-12-30T09:48:58.703Z</time>
      </trkpt>
      <trkpt lat="42.92875" lon="0.75105">
        <ele>1804.5</ele>
        <time>2019-12-30T09:49:10.027Z</time>
      </trkpt>
      <trkpt lat="42.92877" lon="0.75103">
        <ele>1804.5</ele>
        <time>2019-12-30T09:49:15.498Z</time>
      </trkpt>
      <trkpt lat="42.92892" lon="0.75089">
        <ele>1806.3</ele>
        <time>2019-12-30T09:49:53.344Z</time>
      </trkpt>
      <trkpt lat="42.92907" lon="0.75059">
        <ele>1809.8</ele>
        <time>2019-12-30T09:50:49.483Z</time>
      </trkpt>
      <trkpt lat="42.92913" lon="0.75054">
        <ele>1811.8</ele>
        <time>2019-12-30T09:51:04.936Z</time>
      </trkpt>
      <trkpt lat="42.92921" lon="0.75046">
        <ele>1811.8</ele>
        <time>2019-12-30T09:51:25.334Z</time>
      </trkpt>
      <trkpt lat="42.9293" lon="0.75034">
        <ele>1811.3</ele>
        <time>2019-12-30T09:51:52.549Z</time>
      </trkpt>
      <trkpt lat="42.92935" lon="0.75009">
        <ele>1813</ele>
        <time>2019-12-30T09:52:32.682Z</time>
      </trkpt>
      <trkpt lat="42.9294" lon="0.75006">
        <ele>1812.8</ele>
        <time>2019-12-30T09:52:43.929Z</time>
      </trkpt>
      <trkpt lat="42.92943" lon="0.74997">
        <ele>1812.8</ele>
        <time>2019-12-30T09:52:59.467Z</time>
      </trkpt>
      <trkpt lat="42.92955" lon="0.75009">
        <ele>1811.3</ele>
        <time>2019-12-30T09:53:29.818Z</time>
      </trkpt>
      <trkpt lat="42.92947" lon="0.74991">
        <ele>1811.5</ele>
        <time>2019-12-30T09:54:01.911Z</time>
      </trkpt>
      <trkpt lat="42.92955" lon="0.74986">
        <ele>1810.5</ele>
        <time>2019-12-30T09:54:21.253Z</time>
      </trkpt>
      <trkpt lat="42.92965" lon="0.74969">
        <ele>1808.8</ele>
        <time>2019-12-30T09:54:54.924Z</time>
      </trkpt>
      <trkpt lat="42.92967" lon="0.74964">
        <ele>1808.3</ele>
        <time>2019-12-30T09:55:03.829Z</time>
      </trkpt>
      <trkpt lat="42.92965" lon="0.74957">
        <ele>1807.3</ele>
        <time>2019-12-30T09:55:16.005Z</time>
      </trkpt>
      <trkpt lat="42.92971" lon="0.74954">
        <ele>1807.5</ele>
        <time>2019-12-30T09:55:29.685Z</time>
      </trkpt>
      <trkpt lat="42.92975" lon="0.74946">
        <ele>1807.3</ele>
        <time>2019-12-30T09:55:45.277Z</time>
      </trkpt>
      <trkpt lat="42.92979" lon="0.74943">
        <ele>1807.8</ele>
        <time>2019-12-30T09:55:55.162Z</time>
      </trkpt>
      <trkpt lat="42.92992" lon="0.7493">
        <ele>1809.3</ele>
        <time>2019-12-30T09:56:28.863Z</time>
      </trkpt>
      <trkpt lat="42.93005" lon="0.74921">
        <ele>1811.3</ele>
        <time>2019-12-30T09:56:58.898Z</time>
      </trkpt>
      <trkpt lat="42.93038" lon="0.74906">
        <ele>1813.8</ele>
        <time>2019-12-30T09:58:11.973Z</time>
      </trkpt>
      <trkpt lat="42.9306" lon="0.74887">
        <ele>1817</ele>
        <time>2019-12-30T09:59:07.200Z</time>
      </trkpt>
      <trkpt lat="42.93073" lon="0.74881">
        <ele>1819.5</ele>
        <time>2019-12-30T09:59:35.450Z</time>
      </trkpt>
      <trkpt lat="42.931" lon="0.74877">
        <ele>1827.3</ele>
        <time>2019-12-30T10:00:33.990Z</time>
      </trkpt>
      <trkpt lat="42.93102" lon="0.74877">
        <ele>1824.8</ele>
        <time>2019-12-30T10:00:37.455Z</time>
      </trkpt>
      <trkpt lat="42.93111" lon="0.74876">
        <ele>1827.3</ele>
        <time>2019-12-30T10:00:53.784Z</time>
      </trkpt>
      <trkpt lat="42.93116" lon="0.74875">
        <ele>1827.3</ele>
        <time>2019-12-30T10:01:04.149Z</time>
      </trkpt>
      <trkpt lat="42.93151" lon="0.74884">
        <ele>1833</ele>
        <time>2019-12-30T10:02:12.259Z</time>
      </trkpt>
      <trkpt lat="42.93162" lon="0.74892">
        <ele>1835.5</ele>
        <time>2019-12-30T10:02:36.880Z</time>
      </trkpt>
      <trkpt lat="42.93175" lon="0.7491">
        <ele>1836.8</ele>
        <time>2019-12-30T10:03:11.198Z</time>
      </trkpt>
      <trkpt lat="42.93188" lon="0.74925">
        <ele>1833.8</ele>
        <time>2019-12-30T10:03:43.663Z</time>
      </trkpt>
      <trkpt lat="42.93211" lon="0.74943">
        <ele>1830</ele>
        <time>2019-12-30T10:04:34.912Z</time>
      </trkpt>
      <trkpt lat="42.93221" lon="0.74951">
        <ele>1829.8</ele>
        <time>2019-12-30T10:04:57.087Z</time>
      </trkpt>
      <trkpt lat="42.93227" lon="0.74959">
        <ele>1829.8</ele>
        <time>2019-12-30T10:05:25.697Z</time>
      </trkpt>
      <trkpt lat="42.93229" lon="0.74962">
        <ele>1830</ele>
        <time>2019-12-30T10:05:35.345Z</time>
      </trkpt>
      <trkpt lat="42.93252" lon="0.75003">
        <ele>1834.5</ele>
        <time>2019-12-30T10:07:41.039Z</time>
      </trkpt>
      <trkpt lat="42.93282" lon="0.75083">
        <ele>1816.5</ele>
        <time>2019-12-30T10:11:20.818Z</time>
      </trkpt>
      <trkpt lat="42.93289" lon="0.75115">
        <ele>1807.3</ele>
        <time>2019-12-30T10:12:42.480Z</time>
      </trkpt>
      <trkpt lat="42.93305" lon="0.75137">
        <ele>1804</ele>
        <time>2019-12-30T10:13:59.597Z</time>
      </trkpt>
      <trkpt lat="42.9331" lon="0.75148">
        <ele>1803</ele>
        <time>2019-12-30T10:14:30.480Z</time>
      </trkpt>
      <trkpt lat="42.93316" lon="0.7516">
        <ele>1803</ele>
        <time>2019-12-30T10:15:05.720Z</time>
      </trkpt>
      <trkpt lat="42.93323" lon="0.75163">
        <ele>1801.5</ele>
        <time>2019-12-30T10:15:39.281Z</time>
      </trkpt>
      <trkpt lat="42.93352" lon="0.75175">
        <ele>1796</ele>
        <time>2019-12-30T10:18:00.449Z</time>
      </trkpt>
      <trkpt lat="42.93409" lon="0.75228">
        <ele>1775</ele>
        <time>2019-12-30T10:23:22.381Z</time>
      </trkpt>
      <trkpt lat="42.9341" lon="0.75232">
        <ele>1775.5</ele>
        <time>2019-12-30T10:23:36.924Z</time>
      </trkpt>
      <trkpt lat="42.93418" lon="0.75231">
        <ele>1774.3</ele>
        <time>2019-12-30T10:24:14.241Z</time>
      </trkpt>
      <trkpt lat="42.93425" lon="0.75236">
        <ele>1772.5</ele>
        <time>2019-12-30T10:24:48.985Z</time>
      </trkpt>
      <trkpt lat="42.93432" lon="0.75242">
        <ele>1770.8</ele>
        <time>2019-12-30T10:25:29.902Z</time>
      </trkpt>
      <trkpt lat="42.93436" lon="0.7524">
        <ele>1768.8</ele>
        <time>2019-12-30T10:25:48.832Z</time>
      </trkpt>
      <trkpt lat="42.93439" lon="0.75236">
        <ele>1765.5</ele>
        <time>2019-12-30T10:26:05.320Z</time>
      </trkpt>
      <trkpt lat="42.9344" lon="0.75234">
        <ele>1765.5</ele>
        <time>2019-12-30T10:26:16.621Z</time>
      </trkpt>
      <trkpt lat="42.93448" lon="0.75235">
        <ele>1762.8</ele>
        <time>2019-12-30T10:26:54.668Z</time>
      </trkpt>
      <trkpt lat="42.93482" lon="0.75256">
        <ele>1756</ele>
        <time>2019-12-30T10:29:48.296Z</time>
      </trkpt>
      <trkpt lat="42.93503" lon="0.75292">
        <ele>1754.5</ele>
        <time>2019-12-30T10:32:21.848Z</time>
      </trkpt>
      <trkpt lat="42.93516" lon="0.75306">
        <ele>1752.3</ele>
        <time>2019-12-30T10:33:42.420Z</time>
      </trkpt>
      <trkpt lat="42.93538" lon="0.75315">
        <ele>1748.5</ele>
        <time>2019-12-30T10:35:28.048Z</time>
      </trkpt>
      <trkpt lat="42.93558" lon="0.75344">
        <ele>1749.8</ele>
        <time>2019-12-30T10:37:42.694Z</time>
      </trkpt>
      <trkpt lat="42.93577" lon="0.7536">
        <ele>1749.5</ele>
        <time>2019-12-30T10:39:27.124Z</time>
      </trkpt>
      <trkpt lat="42.93586" lon="0.75356">
        <ele>1747.5</ele>
        <time>2019-12-30T10:40:13.650Z</time>
      </trkpt>
      <trkpt lat="42.93595" lon="0.75365">
        <ele>1745</ele>
        <time>2019-12-30T10:41:03.774Z</time>
      </trkpt>
      <trkpt lat="42.93599" lon="0.75378">
        <ele>1745.5</ele>
        <time>2019-12-30T10:41:50.333Z</time>
      </trkpt>
      <trkpt lat="42.93602" lon="0.7538">
        <ele>1744.5</ele>
        <time>2019-12-30T10:42:02.179Z</time>
      </trkpt>
      <trkpt lat="42.93607" lon="0.75385">
        <ele>1743</ele>
        <time>2019-12-30T10:42:25.742Z</time>
      </trkpt>
      <trkpt lat="42.93621" lon="0.75392">
        <ele>1739.3</ele>
        <time>2019-12-30T10:43:18.304Z</time>
      </trkpt>
      <trkpt lat="42.93636" lon="0.75391">
        <ele>1733</ele>
        <time>2019-12-30T10:44:10.296Z</time>
      </trkpt>
      <trkpt lat="42.93647" lon="0.75399">
        <ele>1731</ele>
        <time>2019-12-30T10:44:54.246Z</time>
      </trkpt>
      <trkpt lat="42.93649" lon="0.754">
        <ele>1730.8</ele>
        <time>2019-12-30T10:45:01.483Z</time>
      </trkpt>
      <trkpt lat="42.93653" lon="0.75404">
        <ele>1730.5</ele>
        <time>2019-12-30T10:45:25.055Z</time>
      </trkpt>
      <trkpt lat="42.93656" lon="0.75412">
        <ele>1732.5</ele>
        <time>2019-12-30T10:45:52.185Z</time>
      </trkpt>
      <trkpt lat="42.93673" lon="0.75428">
        <ele>1729.5</ele>
        <time>2019-12-30T10:47:16.254Z</time>
      </trkpt>
      <trkpt lat="42.93703" lon="0.75439">
        <ele>1718.8</ele>
        <time>2019-12-30T10:49:25.828Z</time>
      </trkpt>
      <trkpt lat="42.93717" lon="0.75454">
        <ele>1714.3</ele>
        <time>2019-12-30T10:50:42.165Z</time>
      </trkpt>
      <trkpt lat="42.93727" lon="0.75459">
        <ele>1710.5</ele>
        <time>2019-12-30T10:51:27.679Z</time>
      </trkpt>
      <trkpt lat="42.93734" lon="0.75464">
        <ele>1708.3</ele>
        <time>2019-12-30T10:51:57.003Z</time>
      </trkpt>
      <trkpt lat="42.93741" lon="0.7546">
        <ele>1705.3</ele>
        <time>2019-12-30T10:52:27.442Z</time>
      </trkpt>
      <trkpt lat="42.93748" lon="0.7546">
        <ele>1702.5</ele>
        <time>2019-12-30T10:52:57.043Z</time>
      </trkpt>
      <trkpt lat="42.93752" lon="0.75464">
        <ele>1702</ele>
        <time>2019-12-30T10:53:19.748Z</time>
      </trkpt>
      <trkpt lat="42.93764" lon="0.75459">
        <ele>1702.3</ele>
        <time>2019-12-30T10:54:09.998Z</time>
      </trkpt>
      <trkpt lat="42.93778" lon="0.75466">
        <ele>1704.5</ele>
        <time>2019-12-30T10:55:14.332Z</time>
      </trkpt>
      <trkpt lat="42.93777" lon="0.7547">
        <ele>1705</ele>
        <time>2019-12-30T10:55:29.400Z</time>
      </trkpt>
      <trkpt lat="42.93775" lon="0.7548">
        <ele>1706.3</ele>
        <time>2019-12-30T10:56:00.118Z</time>
      </trkpt>
      <trkpt lat="42.93776" lon="0.75483">
        <ele>1707</ele>
        <time>2019-12-30T10:56:12.154Z</time>
      </trkpt>
      <trkpt lat="42.93778" lon="0.75483">
        <ele>1707.3</ele>
        <time>2019-12-30T10:56:20.606Z</time>
      </trkpt>
      <trkpt lat="42.93779" lon="0.75494">
        <ele>1709.3</ele>
        <time>2019-12-30T10:56:54.752Z</time>
      </trkpt>
      <trkpt lat="42.93772" lon="0.75501">
        <ele>1708.3</ele>
        <time>2019-12-30T10:57:31.822Z</time>
      </trkpt>
      <trkpt lat="42.93777" lon="0.75508">
        <ele>1707.3</ele>
        <time>2019-12-30T10:58:01.357Z</time>
      </trkpt>
      <trkpt lat="42.9378" lon="0.75513">
        <ele>1707.3</ele>
        <time>2019-12-30T10:58:20.366Z</time>
      </trkpt>
      <trkpt lat="42.93771" lon="0.75518">
        <ele>1703.5</ele>
        <time>2019-12-30T10:59:06.927Z</time>
      </trkpt>
      <trkpt lat="42.93766" lon="0.75515">
        <ele>1702.8</ele>
        <time>2019-12-30T10:59:34.062Z</time>
      </trkpt>
      <trkpt lat="42.93766" lon="0.75522">
        <ele>1700.8</ele>
        <time>2019-12-30T10:59:57.054Z</time>
      </trkpt>
      <trkpt lat="42.93763" lon="0.75538">
        <ele>1694.8</ele>
        <time>2019-12-30T11:00:57.788Z</time>
      </trkpt>
      <trkpt lat="42.93763" lon="0.75541">
        <ele>1693.8</ele>
        <time>2019-12-30T11:01:05.073Z</time>
      </trkpt>
      <trkpt lat="42.93763" lon="0.75553">
        <ele>1690.3</ele>
        <time>2019-12-30T11:01:31.840Z</time>
      </trkpt>
      <trkpt lat="42.9376" lon="0.75573">
        <ele>1682.5</ele>
        <time>2019-12-30T11:02:21.262Z</time>
      </trkpt>
      <trkpt lat="42.93763" lon="0.75585">
        <ele>1679.8</ele>
        <time>2019-12-30T11:02:50.468Z</time>
      </trkpt>
      <trkpt lat="42.93758" lon="0.75589">
        <ele>1676.3</ele>
        <time>2019-12-30T11:03:06.624Z</time>
      </trkpt>
      <trkpt lat="42.93758" lon="0.75607">
        <ele>1669.3</ele>
        <time>2019-12-30T11:03:48.200Z</time>
      </trkpt>
      <trkpt lat="42.93758" lon="0.75608">
        <ele>1669.3</ele>
        <time>2019-12-30T11:03:50.078Z</time>
      </trkpt>
      <trkpt lat="42.93755" lon="0.75617">
        <ele>1664.3</ele>
        <time>2019-12-30T11:04:12.735Z</time>
      </trkpt>
      <trkpt lat="42.93756" lon="0.75632">
        <ele>1659.3</ele>
        <time>2019-12-30T11:04:48.514Z</time>
      </trkpt>
      <trkpt lat="42.93754" lon="0.75635">
        <ele>1657.3</ele>
        <time>2019-12-30T11:04:58.256Z</time>
      </trkpt>
      <trkpt lat="42.93744" lon="0.75652">
        <ele>1648.3</ele>
        <time>2019-12-30T11:05:44.047Z</time>
      </trkpt>
      <trkpt lat="42.93738" lon="0.75656">
        <ele>1645</ele>
        <time>2019-12-30T11:06:05.648Z</time>
      </trkpt>
      <trkpt lat="42.93735" lon="0.75658">
        <ele>1645</ele>
        <time>2019-12-30T11:06:16.176Z</time>
      </trkpt>
      <trkpt lat="42.93706" lon="0.75701">
        <ele>1629.8</ele>
        <time>2019-12-30T11:08:24.358Z</time>
      </trkpt>
      <trkpt lat="42.93707" lon="0.75711">
        <ele>1627.5</ele>
        <time>2019-12-30T11:08:46.178Z</time>
      </trkpt>
      <trkpt lat="42.93709" lon="0.7573">
        <ele>1623.5</ele>
        <time>2019-12-30T11:09:30.088Z</time>
      </trkpt>
      <trkpt lat="42.93704" lon="0.75749">
        <ele>1612.5</ele>
        <time>2019-12-30T11:10:17.316Z</time>
      </trkpt>
      <trkpt lat="42.93701" lon="0.75761">
        <ele>1612.5</ele>
        <time>2019-12-30T11:10:47.468Z</time>
      </trkpt>
      <trkpt lat="42.937" lon="0.75764">
        <ele>1612.5</ele>
        <time>2019-12-30T11:10:54.715Z</time>
      </trkpt>
      <trkpt lat="42.93688" lon="0.75771">
        <ele>1608</ele>
        <time>2019-12-30T11:11:35.837Z</time>
      </trkpt>
      <trkpt lat="42.93685" lon="0.7578">
        <ele>1598.8</ele>
        <time>2019-12-30T11:12:00.118Z</time>
      </trkpt>
      <trkpt lat="42.93678" lon="0.75798">
        <ele>1598.8</ele>
        <time>2019-12-30T11:12:48.575Z</time>
      </trkpt>
      <trkpt lat="42.93679" lon="0.75826">
        <ele>1591.3</ele>
        <time>2019-12-30T11:13:32.366Z</time>
      </trkpt>
      <trkpt lat="42.93691" lon="0.75836">
        <ele>1591</ele>
        <time>2019-12-30T11:14:01.641Z</time>
      </trkpt>
      <trkpt lat="42.93693" lon="0.7584">
        <ele>1587.5</ele>
        <time>2019-12-30T11:14:09.989Z</time>
      </trkpt>
      <trkpt lat="42.93699" lon="0.75854">
        <ele>1587.5</ele>
        <time>2019-12-30T11:14:34.110Z</time>
      </trkpt>
      <trkpt lat="42.93702" lon="0.75889">
        <ele>1577.8</ele>
        <time>2019-12-30T11:15:28.814Z</time>
      </trkpt>
      <trkpt lat="42.93695" lon="0.75897">
        <ele>1573.5</ele>
        <time>2019-12-30T11:15:54.624Z</time>
      </trkpt>
      <trkpt lat="42.9369" lon="0.75902">
        <ele>1565.8</ele>
        <time>2019-12-30T11:16:12.103Z</time>
      </trkpt>
      <trkpt lat="42.93684" lon="0.75907">
        <ele>1565.8</ele>
        <time>2019-12-30T11:16:30.623Z</time>
      </trkpt>
      <trkpt lat="42.9368" lon="0.75912">
        <ele>1565.8</ele>
        <time>2019-12-30T11:16:45.449Z</time>
      </trkpt>
      <trkpt lat="42.93677" lon="0.75926">
        <ele>1560.3</ele>
        <time>2019-12-30T11:17:01.120Z</time>
      </trkpt>
      <trkpt lat="42.93675" lon="0.75937">
        <ele>1556.5</ele>
        <time>2019-12-30T11:17:12.633Z</time>
      </trkpt>
      <trkpt lat="42.93672" lon="0.75945">
        <ele>1532.3</ele>
        <time>2019-12-30T11:17:22.412Z</time>
      </trkpt>
      <trkpt lat="42.93668" lon="0.75963">
        <ele>1532.3</ele>
        <time>2019-12-30T11:17:42.019Z</time>
      </trkpt>
      <trkpt lat="42.93658" lon="0.76">
        <ele>1532.3</ele>
        <time>2019-12-30T11:18:22.508Z</time>
      </trkpt>
      <trkpt lat="42.93655" lon="0.76008">
        <ele>1530</ele>
        <time>2019-12-30T11:18:36.403Z</time>
      </trkpt>
      <trkpt lat="42.93654" lon="0.76011">
        <ele>1529.3</ele>
        <time>2019-12-30T11:18:41.526Z</time>
      </trkpt>
      <trkpt lat="42.93644" lon="0.7601">
        <ele>1529.5</ele>
        <time>2019-12-30T11:19:01.161Z</time>
      </trkpt>
      <trkpt lat="42.93622" lon="0.76013">
        <ele>1528.5</ele>
        <time>2019-12-30T11:19:45.724Z</time>
      </trkpt>
      <trkpt lat="42.93612" lon="0.76006">
        <ele>1531.3</ele>
        <time>2019-12-30T11:20:10.786Z</time>
      </trkpt>
      <trkpt lat="42.93613" lon="0.76017">
        <ele>1519.3</ele>
        <time>2019-12-30T11:20:30.028Z</time>
      </trkpt>
      <trkpt lat="42.93612" lon="0.76021">
        <ele>1506.1</ele>
        <time>2019-12-30T11:20:36.877Z</time>
      </trkpt>
      <trkpt lat="42.9361" lon="0.76022">
        <ele>1505.9</ele>
        <time>2019-12-30T11:20:44.877Z</time>
      </trkpt>
      <trkpt lat="42.9361" lon="0.76022">
        <ele>1505.8</ele>
        <time>2019-12-30T11:21:00.877Z</time>
      </trkpt>
      <trkpt lat="42.93609" lon="0.76029">
        <ele>1505.1</ele>
        <time>2019-12-30T11:21:08.877Z</time>
      </trkpt>
      <trkpt lat="42.93608" lon="0.7603">
        <ele>1504.8</ele>
        <time>2019-12-30T11:21:13.877Z</time>
      </trkpt>
      <trkpt lat="42.93606" lon="0.76033">
        <ele>1503.8</ele>
        <time>2019-12-30T11:21:23.877Z</time>
      </trkpt>
      <trkpt lat="42.93604" lon="0.76036">
        <ele>1502.9</ele>
        <time>2019-12-30T11:21:30.877Z</time>
      </trkpt>
      <trkpt lat="42.93604" lon="0.76041">
        <ele>1501.8</ele>
        <time>2019-12-30T11:21:38.877Z</time>
      </trkpt>
      <trkpt lat="42.93603" lon="0.76045">
        <ele>1500.8</ele>
        <time>2019-12-30T11:21:45.877Z</time>
      </trkpt>
      <trkpt lat="42.93602" lon="0.76047">
        <ele>1500.4</ele>
        <time>2019-12-30T11:21:51.877Z</time>
      </trkpt>
      <trkpt lat="42.936" lon="0.76051">
        <ele>1499.4</ele>
        <time>2019-12-30T11:21:59.877Z</time>
      </trkpt>
      <trkpt lat="42.93596" lon="0.76048">
        <ele>1498.6</ele>
        <time>2019-12-30T11:22:10.877Z</time>
      </trkpt>
      <trkpt lat="42.93595" lon="0.76055">
        <ele>1497.9</ele>
        <time>2019-12-30T11:22:18.877Z</time>
      </trkpt>
      <trkpt lat="42.93592" lon="0.76053">
        <ele>1497.3</ele>
        <time>2019-12-30T11:22:27.877Z</time>
      </trkpt>
      <trkpt lat="42.93594" lon="0.76059">
        <ele>1496</ele>
        <time>2019-12-30T11:22:35.877Z</time>
      </trkpt>
      <trkpt lat="42.93592" lon="0.76063">
        <ele>1495.2</ele>
        <time>2019-12-30T11:22:43.877Z</time>
      </trkpt>
      <trkpt lat="42.9359" lon="0.76064">
        <ele>1494.9</ele>
        <time>2019-12-30T11:22:55.877Z</time>
      </trkpt>
      <trkpt lat="42.93589" lon="0.76066">
        <ele>1494.6</ele>
        <time>2019-12-30T11:23:03.877Z</time>
      </trkpt>
      <trkpt lat="42.93587" lon="0.76065">
        <ele>1494.4</ele>
        <time>2019-12-30T11:23:11.877Z</time>
      </trkpt>
      <trkpt lat="42.93584" lon="0.76065">
        <ele>1494</ele>
        <time>2019-12-30T11:23:18.877Z</time>
      </trkpt>
      <trkpt lat="42.93577" lon="0.7607">
        <ele>1493.3</ele>
        <time>2019-12-30T11:23:27.877Z</time>
      </trkpt>
      <trkpt lat="42.93577" lon="0.76072">
        <ele>1493.1</ele>
        <time>2019-12-30T11:23:34.877Z</time>
      </trkpt>
      <trkpt lat="42.93577" lon="0.76074">
        <ele>1493</ele>
        <time>2019-12-30T11:23:41.877Z</time>
      </trkpt>
      <trkpt lat="42.93576" lon="0.76077">
        <ele>1492.6</ele>
        <time>2019-12-30T11:23:48.877Z</time>
      </trkpt>
      <trkpt lat="42.93577" lon="0.7608">
        <ele>1492</ele>
        <time>2019-12-30T11:23:56.877Z</time>
      </trkpt>
      <trkpt lat="42.93575" lon="0.76084">
        <ele>1491.3</ele>
        <time>2019-12-30T11:24:02.877Z</time>
      </trkpt>
      <trkpt lat="42.93571" lon="0.76087">
        <ele>1490.4</ele>
        <time>2019-12-30T11:24:11.877Z</time>
      </trkpt>
      <trkpt lat="42.93568" lon="0.76093">
        <ele>1489.6</ele>
        <time>2019-12-30T11:24:21.877Z</time>
      </trkpt>
      <trkpt lat="42.93563" lon="0.76093">
        <ele>1488.8</ele>
        <time>2019-12-30T11:24:31.877Z</time>
      </trkpt>
      <trkpt lat="42.9356" lon="0.76099">
        <ele>1488.3</ele>
        <time>2019-12-30T11:24:45.877Z</time>
      </trkpt>
      <trkpt lat="42.9356" lon="0.76104">
        <ele>1488.1</ele>
        <time>2019-12-30T11:24:52.877Z</time>
      </trkpt>
      <trkpt lat="42.93557" lon="0.76104">
        <ele>1487.7</ele>
        <time>2019-12-30T11:25:00.877Z</time>
      </trkpt>
      <trkpt lat="42.93556" lon="0.76105">
        <ele>1487.6</ele>
        <time>2019-12-30T11:25:06.877Z</time>
      </trkpt>
      <trkpt lat="42.93555" lon="0.76109">
        <ele>1487.1</ele>
        <time>2019-12-30T11:25:14.877Z</time>
      </trkpt>
      <trkpt lat="42.93554" lon="0.76114">
        <ele>1486.3</ele>
        <time>2019-12-30T11:25:22.877Z</time>
      </trkpt>
      <trkpt lat="42.93552" lon="0.76117">
        <ele>1485.8</ele>
        <time>2019-12-30T11:25:29.877Z</time>
      </trkpt>
      <trkpt lat="42.93551" lon="0.76119">
        <ele>1485.5</ele>
        <time>2019-12-30T11:25:36.877Z</time>
      </trkpt>
      <trkpt lat="42.9355" lon="0.76124">
        <ele>1484.6</ele>
        <time>2019-12-30T11:25:51.877Z</time>
      </trkpt>
      <trkpt lat="42.93549" lon="0.76126">
        <ele>1484.3</ele>
        <time>2019-12-30T11:25:53.877Z</time>
      </trkpt>
      <trkpt lat="42.93545" lon="0.76131">
        <ele>1483.1</ele>
        <time>2019-12-30T11:26:01.877Z</time>
      </trkpt>
      <trkpt lat="42.93543" lon="0.76134">
        <ele>1482.4</ele>
        <time>2019-12-30T11:26:07.877Z</time>
      </trkpt>
      <trkpt lat="42.93541" lon="0.76136">
        <ele>1481.8</ele>
        <time>2019-12-30T11:26:14.877Z</time>
      </trkpt>
      <trkpt lat="42.9353" lon="0.76133">
        <ele>1479.6</ele>
        <time>2019-12-30T11:26:28.877Z</time>
      </trkpt>
      <trkpt lat="42.93525" lon="0.76134">
        <ele>1479.3</ele>
        <time>2019-12-30T11:26:36.877Z</time>
      </trkpt>
      <trkpt lat="42.93523" lon="0.76137">
        <ele>1479.2</ele>
        <time>2019-12-30T11:26:42.877Z</time>
      </trkpt>
      <trkpt lat="42.93517" lon="0.76139">
        <ele>1479</ele>
        <time>2019-12-30T11:26:50.877Z</time>
      </trkpt>
      <trkpt lat="42.93513" lon="0.76137">
        <ele>1478.8</ele>
        <time>2019-12-30T11:27:01.877Z</time>
      </trkpt>
      <trkpt lat="42.9351" lon="0.76138">
        <ele>1478.7</ele>
        <time>2019-12-30T11:27:08.877Z</time>
      </trkpt>
      <trkpt lat="42.93507" lon="0.76132">
        <ele>1479.3</ele>
        <time>2019-12-30T11:27:17.971Z</time>
      </trkpt>
      <trkpt lat="42.93502" lon="0.76134">
        <ele>1478.5</ele>
        <time>2019-12-30T11:27:27.239Z</time>
      </trkpt>
      <trkpt lat="42.93494" lon="0.76129">
        <ele>1479</ele>
        <time>2019-12-30T11:27:41.301Z</time>
      </trkpt>
      <trkpt lat="42.93489" lon="0.76128">
        <ele>1478</ele>
        <time>2019-12-30T11:27:49.639Z</time>
      </trkpt>
      <trkpt lat="42.93484" lon="0.76127">
        <ele>1478</ele>
        <time>2019-12-30T11:27:58.840Z</time>
      </trkpt>
      <trkpt lat="42.93468" lon="0.76114">
        <ele>1479</ele>
        <time>2019-12-30T11:28:35.789Z</time>
      </trkpt>
      <trkpt lat="42.93466" lon="0.76112">
        <ele>1479.3</ele>
        <time>2019-12-30T11:28:41.711Z</time>
      </trkpt>
      <trkpt lat="42.93452" lon="0.7612">
        <ele>1474</ele>
        <time>2019-12-30T11:29:11.135Z</time>
      </trkpt>
      <trkpt lat="42.93447" lon="0.76116">
        <ele>1473.8</ele>
        <time>2019-12-30T11:29:22.596Z</time>
      </trkpt>
      <trkpt lat="42.93441" lon="0.76119">
        <ele>1471.8</ele>
        <time>2019-12-30T11:29:34.827Z</time>
      </trkpt>
      <trkpt lat="42.93437" lon="0.7612">
        <ele>1470.8</ele>
        <time>2019-12-30T11:29:41.590Z</time>
      </trkpt>
      <trkpt lat="42.93435" lon="0.7612">
        <ele>1470.3</ele>
        <time>2019-12-30T11:29:45.063Z</time>
      </trkpt>
      <trkpt lat="42.93429" lon="0.76117">
        <ele>1469.8</ele>
        <time>2019-12-30T11:29:55.602Z</time>
      </trkpt>
      <trkpt lat="42.93425" lon="0.76112">
        <ele>1470.3</ele>
        <time>2019-12-30T11:30:03.675Z</time>
      </trkpt>
      <trkpt lat="42.93409" lon="0.76089">
        <ele>1473</ele>
        <time>2019-12-30T11:30:37.102Z</time>
      </trkpt>
      <trkpt lat="42.93407" lon="0.76091">
        <ele>1471</ele>
        <time>2019-12-30T11:30:40.264Z</time>
      </trkpt>
      <trkpt lat="42.934" lon="0.76099">
        <ele>1471</ele>
        <time>2019-12-30T11:30:53.360Z</time>
      </trkpt>
      <trkpt lat="42.93392" lon="0.76102">
        <ele>1470.5</ele>
        <time>2019-12-30T11:31:03.253Z</time>
      </trkpt>
      <trkpt lat="42.93378" lon="0.76094">
        <ele>1474.8</ele>
        <time>2019-12-30T11:31:21.638Z</time>
      </trkpt>
      <trkpt lat="42.9336" lon="0.76084">
        <ele>1474.8</ele>
        <time>2019-12-30T11:31:43.999Z</time>
      </trkpt>
      <trkpt lat="42.93359" lon="0.76083">
        <ele>1474.8</ele>
        <time>2019-12-30T11:31:46.435Z</time>
      </trkpt>
      <trkpt lat="42.93353" lon="0.76083">
        <ele>1474.5</ele>
        <time>2019-12-30T11:31:55.396Z</time>
      </trkpt>
      <trkpt lat="42.9335" lon="0.76084">
        <ele>1474.5</ele>
        <time>2019-12-30T11:32:00.130Z</time>
      </trkpt>
      <trkpt lat="42.93348" lon="0.76089">
        <ele>1473.8</ele>
        <time>2019-12-30T11:32:07.558Z</time>
      </trkpt>
      <trkpt lat="42.93351" lon="0.761">
        <ele>1471.8</ele>
        <time>2019-12-30T11:32:22.247Z</time>
      </trkpt>
      <trkpt lat="42.93364" lon="0.76124">
        <ele>1467.3</ele>
        <time>2019-12-30T11:32:57.159Z</time>
      </trkpt>
      <trkpt lat="42.9338" lon="0.76135">
        <ele>1464.5</ele>
        <time>2019-12-30T11:33:26.774Z</time>
      </trkpt>
      <trkpt lat="42.93383" lon="0.76148">
        <ele>1462</ele>
        <time>2019-12-30T11:33:42.176Z</time>
      </trkpt>
      <trkpt lat="42.93379" lon="0.76157">
        <ele>1460.3</ele>
        <time>2019-12-30T11:33:56.547Z</time>
      </trkpt>
      <trkpt lat="42.93378" lon="0.7616">
        <ele>1460</ele>
        <time>2019-12-30T11:34:00.560Z</time>
      </trkpt>
      <trkpt lat="42.9337" lon="0.76169">
        <ele>1458.5</ele>
        <time>2019-12-30T11:34:18.773Z</time>
      </trkpt>
      <trkpt lat="42.93347" lon="0.76182">
        <ele>1456</ele>
        <time>2019-12-30T11:35:03.163Z</time>
      </trkpt>
      <trkpt lat="42.93324" lon="0.76196">
        <ele>1451.8</ele>
        <time>2019-12-30T11:35:46.621Z</time>
      </trkpt>
      <trkpt lat="42.93313" lon="0.76191">
        <ele>1453.5</ele>
        <time>2019-12-30T11:36:07.731Z</time>
      </trkpt>
      <trkpt lat="42.93306" lon="0.76184">
        <ele>1455.8</ele>
        <time>2019-12-30T11:36:23.576Z</time>
      </trkpt>
      <trkpt lat="42.93298" lon="0.7618">
        <ele>1457.3</ele>
        <time>2019-12-30T11:36:37.488Z</time>
      </trkpt>
      <trkpt lat="42.93289" lon="0.76184">
        <ele>1456.3</ele>
        <time>2019-12-30T11:36:54.124Z</time>
      </trkpt>
      <trkpt lat="42.93274" lon="0.76194">
        <ele>1452.5</ele>
        <time>2019-12-30T11:37:24.084Z</time>
      </trkpt>
      <trkpt lat="42.93272" lon="0.76195">
        <ele>1452.5</ele>
        <time>2019-12-30T11:37:27.667Z</time>
      </trkpt>
      <trkpt lat="42.93266" lon="0.76196">
        <ele>1452.3</ele>
        <time>2019-12-30T11:37:38.976Z</time>
      </trkpt>
      <trkpt lat="42.93248" lon="0.76191">
        <ele>1454.8</ele>
        <time>2019-12-30T11:38:10.176Z</time>
      </trkpt>
      <trkpt lat="42.93244" lon="0.76195">
        <ele>1454.3</ele>
        <time>2019-12-30T11:38:20.566Z</time>
      </trkpt>
      <trkpt lat="42.93228" lon="0.76219">
        <ele>1450</ele>
        <time>2019-12-30T11:38:49.054Z</time>
      </trkpt>
      <trkpt lat="42.93213" lon="0.76233">
        <ele>1449</ele>
        <time>2019-12-30T11:39:10.619Z</time>
      </trkpt>
      <trkpt lat="42.93211" lon="0.76245">
        <ele>1444.3</ele>
        <time>2019-12-30T11:39:21.875Z</time>
      </trkpt>
      <trkpt lat="42.93211" lon="0.76249">
        <ele>1444.3</ele>
        <time>2019-12-30T11:39:25.348Z</time>
      </trkpt>
      <trkpt lat="42.93216" lon="0.7627">
        <ele>1437.5</ele>
        <time>2019-12-30T11:39:45.199Z</time>
      </trkpt>
      <trkpt lat="42.93216" lon="0.76292">
        <ele>1432</ele>
        <time>2019-12-30T11:40:05.046Z</time>
      </trkpt>
      <trkpt lat="42.93214" lon="0.76307">
        <ele>1429</ele>
        <time>2019-12-30T11:40:18.354Z</time>
      </trkpt>
      <trkpt lat="42.93204" lon="0.76345">
        <ele>1421.3</ele>
        <time>2019-12-30T11:40:54.639Z</time>
      </trkpt>
      <trkpt lat="42.93195" lon="0.76352">
        <ele>1420.5</ele>
        <time>2019-12-30T11:41:07.645Z</time>
      </trkpt>
      <trkpt lat="42.93184" lon="0.76354">
        <ele>1422.3</ele>
        <time>2019-12-30T11:41:19.033Z</time>
      </trkpt>
      <trkpt lat="42.93171" lon="0.76348">
        <ele>1427.3</ele>
        <time>2019-12-30T11:41:34.576Z</time>
      </trkpt>
      <trkpt lat="42.93159" lon="0.76348">
        <ele>1431.8</ele>
        <time>2019-12-30T11:41:47.442Z</time>
      </trkpt>
      <trkpt lat="42.93153" lon="0.76356">
        <ele>1431.8</ele>
        <time>2019-12-30T11:41:57.147Z</time>
      </trkpt>
      <trkpt lat="42.9315" lon="0.76364">
        <ele>1425.3</ele>
        <time>2019-12-30T11:42:04.153Z</time>
      </trkpt>
      <trkpt lat="42.93141" lon="0.76391">
        <ele>1425.3</ele>
        <time>2019-12-30T11:42:28.274Z</time>
      </trkpt>
      <trkpt lat="42.93138" lon="0.76398">
        <ele>1424.5</ele>
        <time>2019-12-30T11:42:33.661Z</time>
      </trkpt>
      <trkpt lat="42.93131" lon="0.76416">
        <ele>1422.8</ele>
        <time>2019-12-30T11:42:47.526Z</time>
      </trkpt>
      <trkpt lat="42.93124" lon="0.76426">
        <ele>1423.5</ele>
        <time>2019-12-30T11:42:56.611Z</time>
      </trkpt>
      <trkpt lat="42.93121" lon="0.76437">
        <ele>1421.3</ele>
        <time>2019-12-30T11:43:05.118Z</time>
      </trkpt>
      <trkpt lat="42.9312" lon="0.7644">
        <ele>1421.3</ele>
        <time>2019-12-30T11:43:07.254Z</time>
      </trkpt>
      <trkpt lat="42.93126" lon="0.76488">
        <ele>1405.5</ele>
        <time>2019-12-30T11:43:39.992Z</time>
      </trkpt>
      <trkpt lat="42.93126" lon="0.76517">
        <ele>1397.5</ele>
        <time>2019-12-30T11:43:59.332Z</time>
      </trkpt>
      <trkpt lat="42.9312" lon="0.76537">
        <ele>1394.5</ele>
        <time>2019-12-30T11:44:14.275Z</time>
      </trkpt>
      <trkpt lat="42.93101" lon="0.76551">
        <ele>1399.5</ele>
        <time>2019-12-30T11:44:34.120Z</time>
      </trkpt>
      <trkpt lat="42.93088" lon="0.76572">
        <ele>1400.5</ele>
        <time>2019-12-30T11:44:52.543Z</time>
      </trkpt>
      <trkpt lat="42.93072" lon="0.76627">
        <ele>1397.8</ele>
        <time>2019-12-30T11:45:32.669Z</time>
      </trkpt>
      <trkpt lat="42.93076" lon="0.76643">
        <ele>1393.5</ele>
        <time>2019-12-30T11:45:44.621Z</time>
      </trkpt>
      <trkpt lat="42.93086" lon="0.76659">
        <ele>1387</ele>
        <time>2019-12-30T11:45:58.536Z</time>
      </trkpt>
      <trkpt lat="42.93093" lon="0.76683">
        <ele>1379.3</ele>
        <time>2019-12-30T11:46:16.269Z</time>
      </trkpt>
      <trkpt lat="42.93091" lon="0.76704">
        <ele>1376.5</ele>
        <time>2019-12-30T11:46:30.382Z</time>
      </trkpt>
      <trkpt lat="42.9308" lon="0.76732">
        <ele>1375.8</ele>
        <time>2019-12-30T11:46:51.854Z</time>
      </trkpt>
      <trkpt lat="42.93078" lon="0.76734">
        <ele>1375.8</ele>
        <time>2019-12-30T11:46:53.961Z</time>
      </trkpt>
      <trkpt lat="42.93066" lon="0.76751">
        <ele>1377</ele>
        <time>2019-12-30T11:47:08.401Z</time>
      </trkpt>
      <trkpt lat="42.93057" lon="0.76759">
        <ele>1378</ele>
        <time>2019-12-30T11:47:17.828Z</time>
      </trkpt>
      <trkpt lat="42.9305" lon="0.76768">
        <ele>1377.8</ele>
        <time>2019-12-30T11:47:25.776Z</time>
      </trkpt>
      <trkpt lat="42.93047" lon="0.76777">
        <ele>1376.3</ele>
        <time>2019-12-30T11:47:32.457Z</time>
      </trkpt>
      <trkpt lat="42.93045" lon="0.76797">
        <ele>1371.3</ele>
        <time>2019-12-30T11:47:45.032Z</time>
      </trkpt>
      <trkpt lat="42.93039" lon="0.76812">
        <ele>1368.5</ele>
        <time>2019-12-30T11:47:55.216Z</time>
      </trkpt>
      <trkpt lat="42.93022" lon="0.76829">
        <ele>1368.8</ele>
        <time>2019-12-30T11:48:13.932Z</time>
      </trkpt>
      <trkpt lat="42.9301" lon="0.76853">
        <ele>1364</ele>
        <time>2019-12-30T11:48:31.539Z</time>
      </trkpt>
      <trkpt lat="42.93001" lon="0.76866">
        <ele>1362</ele>
        <time>2019-12-30T11:48:43.501Z</time>
      </trkpt>
      <trkpt lat="42.92995" lon="0.7688">
        <ele>1358.3</ele>
        <time>2019-12-30T11:48:53.451Z</time>
      </trkpt>
      <trkpt lat="42.9299" lon="0.7689">
        <ele>1358.3</ele>
        <time>2019-12-30T11:49:00.928Z</time>
      </trkpt>
      <trkpt lat="42.92978" lon="0.76904">
        <ele>1359.8</ele>
        <time>2019-12-30T11:49:14.699Z</time>
      </trkpt>
      <trkpt lat="42.9297" lon="0.76926">
        <ele>1358.3</ele>
        <time>2019-12-30T11:49:29.996Z</time>
      </trkpt>
      <trkpt lat="42.92967" lon="0.76963">
        <ele>1351.3</ele>
        <time>2019-12-30T11:49:53.042Z</time>
      </trkpt>
      <trkpt lat="42.92965" lon="0.76981">
        <ele>1348.5</ele>
        <time>2019-12-30T11:50:04.076Z</time>
      </trkpt>
      <trkpt lat="42.92963" lon="0.76995">
        <ele>1346.5</ele>
        <time>2019-12-30T11:50:12.421Z</time>
      </trkpt>
      <trkpt lat="42.9295" lon="0.77062">
        <ele>1336.8</ele>
        <time>2019-12-30T11:50:52.605Z</time>
      </trkpt>
      <trkpt lat="42.92937" lon="0.77128">
        <ele>1336.8</ele>
        <time>2019-12-30T11:51:32.279Z</time>
      </trkpt>
      <trkpt lat="42.92935" lon="0.77147">
        <ele>1332</ele>
        <time>2019-12-30T11:51:43.094Z</time>
      </trkpt>
      <trkpt lat="42.92931" lon="0.77198">
        <ele>1332</ele>
        <time>2019-12-30T11:52:13.014Z</time>
      </trkpt>
      <trkpt lat="42.92932" lon="0.77201">
        <ele>1314.3</ele>
        <time>2019-12-30T11:52:15.438Z</time>
      </trkpt>
      <trkpt lat="42.9295" lon="0.77256">
        <ele>1314.3</ele>
        <time>2019-12-30T11:52:54.630Z</time>
      </trkpt>
      <trkpt lat="42.92964" lon="0.77328">
        <ele>1303</ele>
        <time>2019-12-30T11:53:43.375Z</time>
      </trkpt>
      <trkpt lat="42.92964" lon="0.77342">
        <ele>1302</ele>
        <time>2019-12-30T11:53:52.390Z</time>
      </trkpt>
      <trkpt lat="42.92958" lon="0.77347">
        <ele>1304</ele>
        <time>2019-12-30T11:53:58.912Z</time>
      </trkpt>
      <trkpt lat="42.92957" lon="0.77365">
        <ele>1295.2</ele>
        <time>2019-12-30T11:54:10.131Z</time>
      </trkpt>
      <trkpt lat="42.92956" lon="0.77368">
        <ele>1294.9</ele>
        <time>2019-12-30T11:54:13.131Z</time>
      </trkpt>
      <trkpt lat="42.92954" lon="0.77373">
        <ele>1291.5</ele>
        <time>2019-12-30T11:54:20.131Z</time>
      </trkpt>
      <trkpt lat="42.92952" lon="0.77378">
        <ele>1292.1</ele>
        <time>2019-12-30T11:54:27.131Z</time>
      </trkpt>
      <trkpt lat="42.92953" lon="0.77381">
        <ele>1292.4</ele>
        <time>2019-12-30T11:54:41.131Z</time>
      </trkpt>
      <trkpt lat="42.92951" lon="0.77384">
        <ele>1292.7</ele>
        <time>2019-12-30T11:55:02.131Z</time>
      </trkpt>
      <trkpt lat="42.92948" lon="0.77384">
        <ele>1293.3</ele>
        <time>2019-12-30T11:55:20.131Z</time>
      </trkpt>
      <trkpt lat="42.92947" lon="0.77386">
        <ele>1293.6</ele>
        <time>2019-12-30T11:55:29.131Z</time>
      </trkpt>
      <trkpt lat="42.92938" lon="0.77384">
        <ele>1306</ele>
        <time>2019-12-30T11:55:45.404Z</time>
      </trkpt>
      <trkpt lat="42.92938" lon="0.77388">
        <ele>1305.8</ele>
        <time>2019-12-30T11:55:51.109Z</time>
      </trkpt>
      <trkpt lat="42.92933" lon="0.77387">
        <ele>1307.5</ele>
        <time>2019-12-30T11:56:00.203Z</time>
      </trkpt>
      <trkpt lat="42.92927" lon="0.77384">
        <ele>1310.3</ele>
        <time>2019-12-30T11:56:11.780Z</time>
      </trkpt>
      <trkpt lat="42.92916" lon="0.77382">
        <ele>1314</ele>
        <time>2019-12-30T11:56:32.559Z</time>
      </trkpt>
      <trkpt lat="42.92906" lon="0.77395">
        <ele>1311</ele>
        <time>2019-12-30T11:56:57.126Z</time>
      </trkpt>
      <trkpt lat="42.92899" lon="0.77398">
        <ele>1309.8</ele>
        <time>2019-12-30T11:57:11.970Z</time>
      </trkpt>
      <trkpt lat="42.92889" lon="0.77405">
        <ele>1307.3</ele>
        <time>2019-12-30T11:57:31.430Z</time>
      </trkpt>
      <trkpt lat="42.92872" lon="0.77413">
        <ele>1300.3</ele>
        <time>2019-12-30T11:58:05.283Z</time>
      </trkpt>
      <trkpt lat="42.92862" lon="0.77418">
        <ele>1300.3</ele>
        <time>2019-12-30T11:58:24.992Z</time>
      </trkpt>
      <trkpt lat="42.92853" lon="0.77414">
        <ele>1300.5</ele>
        <time>2019-12-30T11:58:42.464Z</time>
      </trkpt>
      <trkpt lat="42.92851" lon="0.77414">
        <ele>1300.3</ele>
        <time>2019-12-30T11:58:47.278Z</time>
      </trkpt>
      <trkpt lat="42.92845" lon="0.77417">
        <ele>1298.5</ele>
        <time>2019-12-30T11:58:58.269Z</time>
      </trkpt>
      <trkpt lat="42.92836" lon="0.77413">
        <ele>1298.8</ele>
        <time>2019-12-30T11:59:15.310Z</time>
      </trkpt>
      <trkpt lat="42.92827" lon="0.77412">
        <ele>1297.3</ele>
        <time>2019-12-30T11:59:32.750Z</time>
      </trkpt>
      <trkpt lat="42.92827" lon="0.77412">
        <ele>1297.3</ele>
        <time>2019-12-30T11:59:33.143Z</time>
      </trkpt>
      <trkpt lat="42.92823" lon="0.77407">
        <ele>1298.3</ele>
        <time>2019-12-30T11:59:37.724Z</time>
      </trkpt>
      <trkpt lat="42.92809" lon="0.77397">
        <ele>1298.8</ele>
        <time>2019-12-30T11:59:52.453Z</time>
      </trkpt>
      <trkpt lat="42.92805" lon="0.7739">
        <ele>1300.5</ele>
        <time>2019-12-30T11:59:58.389Z</time>
      </trkpt>
      <trkpt lat="42.92799" lon="0.77387">
        <ele>1300</ele>
        <time>2019-12-30T12:00:04.408Z</time>
      </trkpt>
      <trkpt lat="42.92789" lon="0.77372">
        <ele>1303</ele>
        <time>2019-12-30T12:00:18.686Z</time>
      </trkpt>
      <trkpt lat="42.92776" lon="0.77364">
        <ele>1303</ele>
        <time>2019-12-30T12:00:31.787Z</time>
      </trkpt>
      <trkpt lat="42.92767" lon="0.77361">
        <ele>1302</ele>
        <time>2019-12-30T12:00:40.741Z</time>
      </trkpt>
      <trkpt lat="42.92754" lon="0.77351">
        <ele>1302.5</ele>
        <time>2019-12-30T12:00:55.104Z</time>
      </trkpt>
      <trkpt lat="42.92734" lon="0.77338">
        <ele>1302.8</ele>
        <time>2019-12-30T12:01:15.837Z</time>
      </trkpt>
      <trkpt lat="42.92714" lon="0.77331">
        <ele>1301.5</ele>
        <time>2019-12-30T12:01:34.527Z</time>
      </trkpt>
      <trkpt lat="42.92704" lon="0.77325">
        <ele>1302</ele>
        <time>2019-12-30T12:01:45.308Z</time>
      </trkpt>
      <trkpt lat="42.92695" lon="0.7732">
        <ele>1302</ele>
        <time>2019-12-30T12:01:54.490Z</time>
      </trkpt>
      <trkpt lat="42.92667" lon="0.77295">
        <ele>1306.8</ele>
        <time>2019-12-30T12:02:25.779Z</time>
      </trkpt>
      <trkpt lat="42.92637" lon="0.77278">
        <ele>1303.8</ele>
        <time>2019-12-30T12:02:56.267Z</time>
      </trkpt>
      <trkpt lat="42.92623" lon="0.77264">
        <ele>1304.5</ele>
        <time>2019-12-30T12:03:11.168Z</time>
      </trkpt>
      <trkpt lat="42.92615" lon="0.77256">
        <ele>1305.3</ele>
        <time>2019-12-30T12:03:19.929Z</time>
      </trkpt>
      <trkpt lat="42.92585" lon="0.77216">
        <ele>1309.5</ele>
        <time>2019-12-30T12:03:57.127Z</time>
      </trkpt>
      <trkpt lat="42.92568" lon="0.77188">
        <ele>1314.5</ele>
        <time>2019-12-30T12:04:20.301Z</time>
      </trkpt>
      <trkpt lat="42.92545" lon="0.77146">
        <ele>1323</ele>
        <time>2019-12-30T12:04:54.061Z</time>
      </trkpt>
      <trkpt lat="42.92532" lon="0.77132">
        <ele>1325.5</ele>
        <time>2019-12-30T12:05:08.680Z</time>
      </trkpt>
      <trkpt lat="42.9252" lon="0.77118">
        <ele>1325.5</ele>
        <time>2019-12-30T12:05:22.673Z</time>
      </trkpt>
      <trkpt lat="42.92507" lon="0.77112">
        <ele>1324</ele>
        <time>2019-12-30T12:05:34.834Z</time>
      </trkpt>
      <trkpt lat="42.92493" lon="0.77105">
        <ele>1322.3</ele>
        <time>2019-12-30T12:05:49.108Z</time>
      </trkpt>
      <trkpt lat="42.9247" lon="0.77087">
        <ele>1324.3</ele>
        <time>2019-12-30T12:06:13.820Z</time>
      </trkpt>
      <trkpt lat="42.92419" lon="0.77054">
        <ele>1328.3</ele>
        <time>2019-12-30T12:07:06.735Z</time>
      </trkpt>
      <trkpt lat="42.92412" lon="0.77052">
        <ele>1328</ele>
        <time>2019-12-30T12:07:13.639Z</time>
      </trkpt>
      <trkpt lat="42.92388" lon="0.77046">
        <ele>1328</ele>
        <time>2019-12-30T12:07:37.145Z</time>
      </trkpt>
      <trkpt lat="42.92356" lon="0.77043">
        <ele>1325.3</ele>
        <time>2019-12-30T12:08:06.505Z</time>
      </trkpt>
      <trkpt lat="42.92325" lon="0.77046">
        <ele>1319</ele>
        <time>2019-12-30T12:08:35.693Z</time>
      </trkpt>
      <trkpt lat="42.92311" lon="0.77037">
        <ele>1318.8</ele>
        <time>2019-12-30T12:08:51.115Z</time>
      </trkpt>
      <trkpt lat="42.92294" lon="0.77022">
        <ele>1319.8</ele>
        <time>2019-12-30T12:09:09.747Z</time>
      </trkpt>
      <trkpt lat="42.92287" lon="0.7701">
        <ele>1321.5</ele>
        <time>2019-12-30T12:09:20.191Z</time>
      </trkpt>
      <trkpt lat="42.92271" lon="0.76984">
        <ele>1326</ele>
        <time>2019-12-30T12:09:43.950Z</time>
      </trkpt>
      <trkpt lat="42.92252" lon="0.76935">
        <ele>1332</ele>
        <time>2019-12-30T12:10:22.400Z</time>
      </trkpt>
      <trkpt lat="42.92238" lon="0.76882">
        <ele>1338</ele>
        <time>2019-12-30T12:11:01.791Z</time>
      </trkpt>
      <trkpt lat="42.92229" lon="0.76836">
        <ele>1339.3</ele>
        <time>2019-12-30T12:11:40.445Z</time>
      </trkpt>
      <trkpt lat="42.92216" lon="0.76778">
        <ele>1341.5</ele>
        <time>2019-12-30T12:12:30.012Z</time>
      </trkpt>
      <trkpt lat="42.92215" lon="0.76775">
        <ele>1341.5</ele>
        <time>2019-12-30T12:12:32.826Z</time>
      </trkpt>
      <trkpt lat="42.92206" lon="0.76702">
        <ele>1345.5</ele>
        <time>2019-12-30T12:13:33.919Z</time>
      </trkpt>
      <trkpt lat="42.92202" lon="0.76629">
        <ele>1353</ele>
        <time>2019-12-30T12:14:33.432Z</time>
      </trkpt>
      <trkpt lat="42.92196" lon="0.76561">
        <ele>1358.8</ele>
        <time>2019-12-30T12:15:29.562Z</time>
      </trkpt>
      <trkpt lat="42.92191" lon="0.76542">
        <ele>1359</ele>
        <time>2019-12-30T12:15:43.425Z</time>
      </trkpt>
      <trkpt lat="42.92182" lon="0.76506">
        <ele>1359.8</ele>
        <time>2019-12-30T12:16:09.298Z</time>
      </trkpt>
      <trkpt lat="42.92156" lon="0.76476">
        <ele>1354.3</ele>
        <time>2019-12-30T12:16:40.383Z</time>
      </trkpt>
      <trkpt lat="42.92133" lon="0.76415">
        <ele>1362.5</ele>
        <time>2019-12-30T12:17:27.316Z</time>
      </trkpt>
      <trkpt lat="42.92127" lon="0.76399">
        <ele>1362.5</ele>
        <time>2019-12-30T12:17:39.439Z</time>
      </trkpt>
      <trkpt lat="42.92104" lon="0.76335">
        <ele>1365.8</ele>
        <time>2019-12-30T12:18:28.255Z</time>
      </trkpt>
      <trkpt lat="42.92088" lon="0.76277">
        <ele>1367.8</ele>
        <time>2019-12-30T12:19:10.253Z</time>
      </trkpt>
      <trkpt lat="42.92086" lon="0.76275">
        <ele>1367.3</ele>
        <time>2019-12-30T12:19:12.248Z</time>
      </trkpt>
      <trkpt lat="42.92076" lon="0.76261">
        <ele>1367.3</ele>
        <time>2019-12-30T12:19:25.550Z</time>
      </trkpt>
      <trkpt lat="42.92054" lon="0.76255">
        <ele>1363.8</ele>
        <time>2019-12-30T12:19:49.407Z</time>
      </trkpt>
      <trkpt lat="42.92049" lon="0.76252">
        <ele>1363.5</ele>
        <time>2019-12-30T12:19:53.995Z</time>
      </trkpt>
      <trkpt lat="42.92041" lon="0.76247">
        <ele>1362.8</ele>
        <time>2019-12-30T12:20:03.823Z</time>
      </trkpt>
      <trkpt lat="42.9202" lon="0.76226">
        <ele>1362.8</ele>
        <time>2019-12-30T12:20:30.258Z</time>
      </trkpt>
      <trkpt lat="42.92008" lon="0.76204">
        <ele>1364.3</ele>
        <time>2019-12-30T12:20:50.728Z</time>
      </trkpt>
      <trkpt lat="42.91994" lon="0.76188">
        <ele>1364.8</ele>
        <time>2019-12-30T12:21:08.846Z</time>
      </trkpt>
      <trkpt lat="42.91987" lon="0.76183">
        <ele>1364.8</ele>
        <time>2019-12-30T12:21:17.240Z</time>
      </trkpt>
      <trkpt lat="42.91981" lon="0.76178">
        <ele>1364.8</ele>
        <time>2019-12-30T12:21:25.007Z</time>
      </trkpt>
      <trkpt lat="42.91965" lon="0.76174">
        <ele>1363.5</ele>
        <time>2019-12-30T12:21:41.601Z</time>
      </trkpt>
      <trkpt lat="42.91955" lon="0.76172">
        <ele>1362.5</ele>
        <time>2019-12-30T12:21:51.291Z</time>
      </trkpt>
      <trkpt lat="42.91943" lon="0.76174">
        <ele>1361</ele>
        <time>2019-12-30T12:22:04.245Z</time>
      </trkpt>
      <trkpt lat="42.91935" lon="0.76178">
        <ele>1360</ele>
        <time>2019-12-30T12:22:12.992Z</time>
      </trkpt>
      <trkpt lat="42.91927" lon="0.76153">
        <ele>1359</ele>
        <time>2019-12-30T12:23:02.342Z</time>
      </trkpt>
      <trkpt lat="42.91905" lon="0.76163">
        <ele>1358.3</ele>
        <time>2019-12-30T12:24:00.530Z</time>
      </trkpt>
      <trkpt lat="42.91903" lon="0.76191">
        <ele>1359.3</ele>
        <time>2019-12-30T12:24:51.422Z</time>
      </trkpt>
      <trkpt lat="42.91901" lon="0.76195">
        <ele>1363</ele>
        <time>2019-12-30T12:25:00.211Z</time>
      </trkpt>
      <trkpt lat="42.91901" lon="0.76198">
        <ele>1363</ele>
        <time>2019-12-30T12:25:04.605Z</time>
      </trkpt>
      <trkpt lat="42.91901" lon="0.76197">
        <ele>1364</ele>
        <time>2019-12-30T12:25:05.670Z</time>
      </trkpt>
      <trkpt lat="42.91901" lon="0.76203">
        <ele>1364.1</ele>
        <time>2019-12-30T12:25:17.670Z</time>
      </trkpt>
      <trkpt lat="42.91901" lon="0.76209">
        <ele>1364.3</ele>
        <time>2019-12-30T12:25:31.670Z</time>
      </trkpt>
      <trkpt lat="42.91902" lon="0.76206">
        <ele>1364.3</ele>
        <time>2019-12-30T12:25:38.670Z</time>
      </trkpt>
    </trkseg>
  </trk>
</gpx>